sensor_id;sensor_type;location;lat;lon;timestamp;pressure;altitude;pressure_sealevel;temperature;humidity
13553;BME280;6847;48.830;9.116;2022-09-17T00:02:00;97564.38;;;13.84;68.60
13553;BME280;6847;48.830;9.116;2022-09-17T00:04:46;97558.44;;;13.82;68.13
13553;BME280;6847;48.830;9.116;2022-09-17T00:07:32;97564.50;;;13.79;68.58
13553;BME280;6847;48.830;9.116;2022-09-17T00:10:19;97561.59;;;13.75;68.61
13553;BME280;6847;48.830;9.116;2022-09-17T00:13:06;97553.66;;;13.65;68.80
13553;BME280;6847;48.830;9.116;2022-09-17T00:15:53;97561.88;;;13.74;68.22
13553;BME280;6847;48.830;9.116;2022-09-17T00:18:39;97556.44;;;13.74;68.76
13553;BME280;6847;48.830;9.116;2022-09-17T00:21:25;97482.41;;;13.27;68.52
13553;BME280;6847;48.830;9.116;2022-09-17T00:24:13;97516.44;;;13.38;68.56
13553;BME280;6847;48.830;9.116;2022-09-17T00:27:00;97559.47;;;13.72;68.40
13553;BME280;6847;48.830;9.116;2022-09-17T00:29:46;97528.59;;;13.54;68.35
13553;BME280;6847;48.830;9.116;2022-09-17T00:32:34;97562.78;;;13.83;68.70
13553;BME280;6847;48.830;9.116;2022-09-17T00:35:19;97519.59;;;13.67;68.76
13553;BME280;6847;48.830;9.116;2022-09-17T00:38:04;97564.47;;;13.92;68.63
13553;BME280;6847;48.830;9.116;2022-09-17T00:40:50;97560.34;;;13.95;68.61
13553;BME280;6847;48.830;9.116;2022-09-17T00:43:38;97535.09;;;13.81;68.56
13553;BME280;6847;48.830;9.116;2022-09-17T00:46:30;97522.19;;;13.73;68.17
13553;BME280;6847;48.830;9.116;2022-09-17T00:49:22;97541.13;;;13.78;68.30
13553;BME280;6847;48.830;9.116;2022-09-17T00:52:11;97563.28;;;13.85;68.68
13553;BME280;6847;48.830;9.116;2022-09-17T00:55:02;97568.34;;;13.78;68.88
13553;BME280;6847;48.830;9.116;2022-09-17T00:57:51;97546.41;;;13.60;68.88
13553;BME280;6847;48.830;9.116;2022-09-17T01:00:42;97558.88;;;13.61;68.67
13553;BME280;6847;48.830;9.116;2022-09-17T01:03:28;97560.09;;;13.55;68.57
13553;BME280;6847;48.830;9.116;2022-09-17T01:13:46;97578.06;;;13.29;69.44
13553;BME280;6847;48.830;9.116;2022-09-17T01:16:49;97547.22;;;13.06;69.00
13553;BME280;6847;48.830;9.116;2022-09-17T01:19:55;97462.66;;;12.53;69.01
13553;BME280;6847;48.830;9.116;2022-09-17T01:22:56;97579.38;;;13.18;69.50
13553;BME280;6847;48.830;9.116;2022-09-17T01:25:49;97578.84;;;13.16;69.10
13553;BME280;6847;48.830;9.116;2022-09-17T01:28:50;97588.53;;;13.22;69.56
13553;BME280;6847;48.830;9.116;2022-09-17T01:31:46;97585.94;;;13.30;69.03
13553;BME280;6847;48.830;9.116;2022-09-17T01:34:41;97563.56;;;13.20;69.01
13553;BME280;6847;48.830;9.116;2022-09-17T01:37:32;97579.66;;;13.44;68.85
13553;BME280;6847;48.830;9.116;2022-09-17T01:40:23;97585.19;;;13.52;68.75
13553;BME280;6847;48.830;9.116;2022-09-17T01:43:15;97558.19;;;13.42;69.00
13553;BME280;6847;48.830;9.116;2022-09-17T01:46:10;97578.56;;;13.58;68.45
13553;BME280;6847;48.830;9.116;2022-09-17T01:49:01;97470.53;;;12.95;68.98
13553;BME280;6847;48.830;9.116;2022-09-17T01:51:52;97589.50;;;13.81;68.40
13553;BME280;6847;48.830;9.116;2022-09-17T01:54:41;97597.03;;;13.84;68.37
13553;BME280;6847;48.830;9.116;2022-09-17T01:57:34;97597.53;;;13.86;68.59
13553;BME280;6847;48.830;9.116;2022-09-17T02:00:21;97593.72;;;13.87;68.40
13553;BME280;6847;48.830;9.116;2022-09-17T02:03:13;97596.44;;;13.87;69.14
13553;BME280;6847;48.830;9.116;2022-09-17T02:06:05;97545.63;;;13.46;69.20
13553;BME280;6847;48.830;9.116;2022-09-17T02:08:55;97566.16;;;13.52;68.89
13553;BME280;6847;48.830;9.116;2022-09-17T02:11:47;97604.53;;;13.64;68.90
13553;BME280;6847;48.830;9.116;2022-09-17T02:14:38;97588.53;;;13.49;68.97
13553;BME280;6847;48.830;9.116;2022-09-17T02:17:36;97600.19;;;13.63;69.07
13553;BME280;6847;48.830;9.116;2022-09-17T02:20:26;97600.69;;;13.65;69.24
13553;BME280;6847;48.830;9.116;2022-09-17T02:23:21;97595.75;;;13.67;69.51
13553;BME280;6847;48.830;9.116;2022-09-17T02:26:11;97591.94;;;13.68;69.40
13553;BME280;6847;48.830;9.116;2022-09-17T02:29:06;97595.16;;;13.70;69.27
13553;BME280;6847;48.830;9.116;2022-09-17T02:31:53;97569.38;;;13.54;69.02
13553;BME280;6847;48.830;9.116;2022-09-17T02:34:40;97596.34;;;13.78;68.58
13553;BME280;6847;48.830;9.116;2022-09-17T02:37:26;97571.38;;;13.62;68.84
13553;BME280;6847;48.830;9.116;2022-09-17T02:40:15;97590.63;;;13.80;69.10
13553;BME280;6847;48.830;9.116;2022-09-17T02:43:09;97547.91;;;13.53;68.94
13553;BME280;6847;48.830;9.116;2022-09-17T02:46:11;97531.00;;;13.42;68.56
13553;BME280;6847;48.830;9.116;2022-09-17T02:49:10;97525.09;;;13.40;68.71
13553;BME280;6847;48.830;9.116;2022-09-17T02:52:10;97581.88;;;13.69;69.27
13553;BME280;6847;48.830;9.116;2022-09-17T02:55:11;97566.16;;;13.52;69.21
13553;BME280;6847;48.830;9.116;2022-09-17T02:58:06;97577.16;;;13.47;69.06
13553;BME280;6847;48.830;9.116;2022-09-17T03:00:59;97524.25;;;12.98;69.14
13553;BME280;6847;48.830;9.116;2022-09-17T03:03:48;97583.50;;;13.29;69.04
13553;BME280;6847;48.830;9.116;2022-09-17T03:06:36;97585.31;;;13.20;69.46
13553;BME280;6847;48.830;9.116;2022-09-17T03:09:22;97582.13;;;13.13;69.39
13553;BME280;6847;48.830;9.116;2022-09-17T03:12:08;97573.59;;;13.06;69.29
13553;BME280;6847;48.830;9.116;2022-09-17T03:14:58;97576.13;;;13.02;69.38
13553;BME280;6847;48.830;9.116;2022-09-17T03:17:44;97575.97;;;12.93;69.05
13553;BME280;6847;48.830;9.116;2022-09-17T03:20:30;97574.97;;;12.89;69.75
13553;BME280;6847;48.830;9.116;2022-09-17T03:23:15;97575.78;;;12.90;69.88
13553;BME280;6847;48.830;9.116;2022-09-17T03:26:01;97492.50;;;12.39;69.37
13553;BME280;6847;48.830;9.116;2022-09-17T03:28:47;97569.56;;;12.89;68.95
13553;BME280;6847;48.830;9.116;2022-09-17T03:31:35;97585.84;;;13.03;69.14
13553;BME280;6847;48.830;9.116;2022-09-17T03:34:22;97518.78;;;12.57;69.50
13553;BME280;6847;48.830;9.116;2022-09-17T03:37:07;97584.63;;;12.95;68.82
13553;BME280;6847;48.830;9.116;2022-09-17T03:39:52;97590.25;;;12.85;69.37
13553;BME280;6847;48.830;9.116;2022-09-17T03:42:37;97596.91;;;12.79;69.55
13553;BME280;6847;48.830;9.116;2022-09-17T03:49:04;97593.44;;;12.60;69.26
13553;BME280;6847;48.830;9.116;2022-09-17T03:51:51;97606.25;;;12.54;69.75
13553;BME280;6847;48.830;9.116;2022-09-17T03:54:36;97605.25;;;12.50;70.14
13553;BME280;6847;48.830;9.116;2022-09-17T03:57:22;97611.56;;;12.46;68.94
13553;BME280;6847;48.830;9.116;2022-09-17T04:00:10;97604.84;;;12.43;69.46
13553;BME280;6847;48.830;9.116;2022-09-17T04:02:58;97609.25;;;12.39;69.51
13553;BME280;6847;48.830;9.116;2022-09-17T04:05:48;97604.38;;;12.36;69.31
13553;BME280;6847;48.830;9.116;2022-09-17T04:08:37;97615.47;;;12.40;69.91
13553;BME280;6847;48.830;9.116;2022-09-17T04:11:26;97611.66;;;12.41;69.40
13553;BME280;6847;48.830;9.116;2022-09-17T04:14:12;97595.97;;;12.38;70.17
13553;BME280;6847;48.830;9.116;2022-09-17T04:16:57;97499.66;;;11.84;69.02
13553;BME280;6847;48.830;9.116;2022-09-17T04:19:43;97605.47;;;12.54;69.92
13553;BME280;6847;48.830;9.116;2022-09-17T04:22:29;97611.50;;;12.51;69.55
13553;BME280;6847;48.830;9.116;2022-09-17T04:25:16;97610.47;;;12.47;69.16
13553;BME280;6847;48.830;9.116;2022-09-17T04:28:05;97601.38;;;12.38;69.85
13553;BME280;6847;48.830;9.116;2022-09-17T04:30:50;97615.31;;;12.50;69.81
13553;BME280;6847;48.830;9.116;2022-09-17T04:33:36;97601.22;;;12.48;69.54
13553;BME280;6847;48.830;9.116;2022-09-17T04:36:26;97592.03;;;12.44;69.51
13553;BME280;6847;48.830;9.116;2022-09-17T04:39:17;97629.66;;;12.69;69.36
13553;BME280;6847;48.830;9.116;2022-09-17T04:42:03;97607.06;;;12.55;69.25
13553;BME280;6847;48.830;9.116;2022-09-17T04:44:48;97635.50;;;12.76;69.46
13553;BME280;6847;48.830;9.116;2022-09-17T04:47:37;97615.16;;;12.60;69.79
13553;BME280;6847;48.830;9.116;2022-09-17T04:50:24;97647.59;;;12.84;69.07
13553;BME280;6847;48.830;9.116;2022-09-17T04:53:10;97635.94;;;12.83;69.25
13553;BME280;6847;48.830;9.116;2022-09-17T04:55:57;97643.31;;;12.96;69.44
13553;BME280;6847;48.830;9.116;2022-09-17T04:58:44;97645.97;;;13.02;69.63
13553;BME280;6847;48.830;9.116;2022-09-17T05:01:30;97642.63;;;13.05;69.74
13553;BME280;6847;48.830;9.116;2022-09-17T05:04:16;97500.88;;;12.10;69.20
13553;BME280;6847;48.830;9.116;2022-09-17T05:07:03;97656.22;;;13.05;69.56
13553;BME280;6847;48.830;9.116;2022-09-17T05:09:50;97653.78;;;13.03;69.60
13553;BME280;6847;48.830;9.116;2022-09-17T05:12:37;97638.41;;;12.98;69.33
13553;BME280;6847;48.830;9.116;2022-09-17T05:15:24;97625.50;;;12.90;68.98
13553;BME280;6847;48.830;9.116;2022-09-17T05:18:10;97632.56;;;12.91;69.25
13553;BME280;6847;48.830;9.116;2022-09-17T05:20:56;97649.84;;;12.95;69.57
13553;BME280;6847;48.830;9.116;2022-09-17T05:23:43;97644.53;;;12.90;69.23
13553;BME280;6847;48.830;9.116;2022-09-17T05:26:30;97641.59;;;12.87;69.53
13553;BME280;6847;48.830;9.116;2022-09-17T05:29:17;97642.97;;;12.84;69.86
13553;BME280;6847;48.830;9.116;2022-09-17T05:32:02;97652.84;;;12.80;69.30
13553;BME280;6847;48.830;9.116;2022-09-17T05:34:48;97649.59;;;12.78;69.63
13553;BME280;6847;48.830;9.116;2022-09-17T05:37:34;97644.75;;;12.75;69.25
13553;BME280;6847;48.830;9.116;2022-09-17T05:40:22;97644.56;;;12.72;69.84
13553;BME280;6847;48.830;9.116;2022-09-17T05:43:09;97651.41;;;12.69;69.78
13553;BME280;6847;48.830;9.116;2022-09-17T05:46:01;97652.50;;;12.68;69.55
13553;BME280;6847;48.830;9.116;2022-09-17T05:48:50;97655.78;;;12.65;69.21
13553;BME280;6847;48.830;9.116;2022-09-17T05:51:35;97657.63;;;12.70;69.49
13553;BME280;6847;48.830;9.116;2022-09-17T05:54:20;97657.97;;;12.82;69.74
13553;BME280;6847;48.830;9.116;2022-09-17T05:57:06;97671.41;;;12.92;69.80
13553;BME280;6847;48.830;9.116;2022-09-17T05:59:51;97677.38;;;13.08;69.15
13553;BME280;6847;48.830;9.116;2022-09-17T06:02:38;97652.91;;;13.08;69.45
13553;BME280;6847;48.830;9.116;2022-09-17T06:05:23;97674.94;;;13.52;69.18
13553;BME280;6847;48.830;9.116;2022-09-17T06:08:09;97655.31;;;13.55;69.06
13553;BME280;6847;48.830;9.116;2022-09-17T06:10:54;97686.75;;;13.89;68.44
13553;BME280;6847;48.830;9.116;2022-09-17T06:13:43;97688.84;;;13.92;68.42
13553;BME280;6847;48.830;9.116;2022-09-17T06:16:31;97672.34;;;13.75;68.68
13553;BME280;6847;48.830;9.116;2022-09-17T06:19:18;97684.63;;;13.86;68.91
13553;BME280;6847;48.830;9.116;2022-09-17T06:22:03;97656.22;;;13.64;68.68
13553;BME280;6847;48.830;9.116;2022-09-17T06:24:48;97690.06;;;13.86;68.62
13553;BME280;6847;48.830;9.116;2022-09-17T06:27:34;97698.03;;;13.96;69.08
13553;BME280;6847;48.830;9.116;2022-09-17T06:30:19;97695.09;;;14.06;69.00
13553;BME280;6847;48.830;9.116;2022-09-17T06:33:04;97704.16;;;14.15;68.78
13553;BME280;6847;48.830;9.116;2022-09-17T06:35:56;97707.16;;;14.27;68.33
13553;BME280;6847;48.830;9.116;2022-09-17T06:38:44;97708.06;;;14.36;68.43
13553;BME280;6847;48.830;9.116;2022-09-17T06:41:30;97566.47;;;13.51;68.30
13553;BME280;6847;48.830;9.116;2022-09-17T06:44:15;97705.53;;;14.40;68.56
13553;BME280;6847;48.830;9.116;2022-09-17T06:47:01;97709.78;;;14.46;68.25
13553;BME280;6847;48.830;9.116;2022-09-17T06:49:46;97645.66;;;14.13;68.44
13553;BME280;6847;48.830;9.116;2022-09-17T06:52:34;97717.59;;;14.61;68.59
13553;BME280;6847;48.830;9.116;2022-09-17T06:55:20;97713.34;;;14.69;68.12
13553;BME280;6847;48.830;9.116;2022-09-17T06:58:05;97705.88;;;14.61;67.98
13553;BME280;6847;48.830;9.116;2022-09-17T07:00:50;97709.50;;;14.70;68.21
13553;BME280;6847;48.830;9.116;2022-09-17T07:03:35;97735.09;;;14.82;68.13
13553;BME280;6847;48.830;9.116;2022-09-17T07:06:21;97710.88;;;14.59;67.92
13553;BME280;6847;48.830;9.116;2022-09-17T07:09:08;97727.50;;;14.57;68.41
13553;BME280;6847;48.830;9.116;2022-09-17T07:11:55;97732.75;;;14.54;68.41
13553;BME280;6847;48.830;9.116;2022-09-17T07:14:40;97732.16;;;14.43;68.82
13553;BME280;6847;48.830;9.116;2022-09-17T07:17:28;97747.09;;;14.32;68.41
13553;BME280;6847;48.830;9.116;2022-09-17T07:20:14;97746.00;;;14.19;68.71
13553;BME280;6847;48.830;9.116;2022-09-17T07:22:59;97741.28;;;13.97;68.66
13553;BME280;6847;48.830;9.116;2022-09-17T07:25:51;97701.53;;;13.55;69.15
13553;BME280;6847;48.830;9.116;2022-09-17T07:28:37;97722.19;;;13.56;68.83
13553;BME280;6847;48.830;9.116;2022-09-17T07:31:23;97743.66;;;13.58;69.60
13553;BME280;6847;48.830;9.116;2022-09-17T07:34:10;97741.19;;;13.43;69.10
13553;BME280;6847;48.830;9.116;2022-09-17T07:37:00;97753.50;;;13.40;69.76
13553;BME280;6847;48.830;9.116;2022-09-17T07:39:45;97731.63;;;13.31;69.63
13553;BME280;6847;48.830;9.116;2022-09-17T07:42:32;97749.16;;;13.39;69.06
13553;BME280;6847;48.830;9.116;2022-09-17T07:45:20;97752.59;;;13.31;69.57
13553;BME280;6847;48.830;9.116;2022-09-17T07:48:05;97759.69;;;13.27;69.78
13553;BME280;6847;48.830;9.116;2022-09-17T07:50:51;97760.22;;;13.29;69.46
13553;BME280;6847;48.830;9.116;2022-09-17T07:53:37;97763.78;;;13.43;69.97
13553;BME280;6847;48.830;9.116;2022-09-17T07:56:24;97763.91;;;13.65;69.38
13553;BME280;6847;48.830;9.116;2022-09-17T07:59:14;97768.06;;;13.77;68.94
13553;BME280;6847;48.830;9.116;2022-09-17T08:02:01;97772.94;;;13.80;69.33
13553;BME280;6847;48.830;9.116;2022-09-17T08:04:50;97771.13;;;13.89;69.38
13553;BME280;6847;48.830;9.116;2022-09-17T08:07:36;97783.41;;;14.00;69.15
13553;BME280;6847;48.830;9.116;2022-09-17T08:10:22;97782.00;;;14.16;69.35
13553;BME280;6847;48.830;9.116;2022-09-17T08:13:07;97775.53;;;14.26;69.39
13553;BME280;6847;48.830;9.116;2022-09-17T08:15:57;97780.41;;;14.42;68.83
13553;BME280;6847;48.830;9.116;2022-09-17T08:18:43;97771.56;;;14.59;69.15
13553;BME280;6847;48.830;9.116;2022-09-17T08:21:29;97775.44;;;14.94;68.51
13553;BME280;6847;48.830;9.116;2022-09-17T08:24:15;97776.50;;;15.07;68.53
13553;BME280;6847;48.830;9.116;2022-09-17T08:27:01;97770.72;;;15.08;68.60
13553;BME280;6847;48.830;9.116;2022-09-17T08:29:46;97781.38;;;15.18;68.66
13553;BME280;6847;48.830;9.116;2022-09-17T08:32:33;97780.47;;;15.23;68.67
13553;BME280;6847;48.830;9.116;2022-09-17T08:35:18;97779.56;;;15.28;68.58
13553;BME280;6847;48.830;9.116;2022-09-17T08:38:03;97724.75;;;14.93;68.50
13553;BME280;6847;48.830;9.116;2022-09-17T08:40:57;97779.28;;;15.38;68.72
13553;BME280;6847;48.830;9.116;2022-09-17T08:43:49;97765.06;;;15.49;68.63
13553;BME280;6847;48.830;9.116;2022-09-17T08:46:41;97778.09;;;16.06;68.22
13553;BME280;6847;48.830;9.116;2022-09-17T08:49:33;97770.41;;;17.16;66.23
13553;BME280;6847;48.830;9.116;2022-09-17T08:55:45;97784.22;;;17.63;66.00
13553;BME280;6847;48.830;9.116;2022-09-17T08:58:39;97782.13;;;17.60;66.14
13553;BME280;6847;48.830;9.116;2022-09-17T09:01:57;97795.19;;;17.46;66.90
13553;BME280;6847;48.830;9.116;2022-09-17T09:05:00;97787.63;;;17.25;67.26
13553;BME280;6847;48.830;9.116;2022-09-17T09:07:48;97797.47;;;17.00;67.59
13553;BME280;6847;48.830;9.116;2022-09-17T09:10:44;97796.66;;;16.83;67.52
13553;BME280;6847;48.830;9.116;2022-09-17T09:13:35;97799.19;;;16.71;68.13
13553;BME280;6847;48.830;9.116;2022-09-17T09:16:24;97801.09;;;16.61;67.86
13553;BME280;6847;48.830;9.116;2022-09-17T09:19:21;97803.63;;;16.49;68.07
13553;BME280;6847;48.830;9.116;2022-09-17T09:22:17;97789.94;;;16.41;68.28
13553;BME280;6847;48.830;9.116;2022-09-17T09:25:17;97799.75;;;16.42;68.21
13553;BME280;6847;48.830;9.116;2022-09-17T09:28:14;97760.78;;;16.19;68.40
13553;BME280;6847;48.830;9.116;2022-09-17T09:31:17;97794.28;;;16.50;68.16
13553;BME280;6847;48.830;9.116;2022-09-17T09:34:14;97795.13;;;16.59;67.69
13553;BME280;6847;48.830;9.116;2022-09-17T09:37:10;97803.69;;;16.67;67.91
13553;BME280;6847;48.830;9.116;2022-09-17T09:40:06;97792.13;;;16.70;67.73
13553;BME280;6847;48.830;9.116;2022-09-17T09:43:10;97757.94;;;16.41;67.72
13553;BME280;6847;48.830;9.116;2022-09-17T09:46:23;97785.84;;;16.69;67.47
13553;BME280;6847;48.830;9.116;2022-09-17T09:49:24;97784.34;;;16.54;67.48
13553;BME280;6847;48.830;9.116;2022-09-17T09:52:28;97798.88;;;16.63;67.63
13553;BME280;6847;48.830;9.116;2022-09-17T09:55:39;97772.50;;;16.85;66.88
13553;BME280;6847;48.830;9.116;2022-09-17T09:58:30;97788.56;;;17.81;66.35
13553;BME280;6847;48.830;9.116;2022-09-17T10:01:20;97758.88;;;18.59;64.58
13553;BME280;6847;48.830;9.116;2022-09-17T10:04:15;97795.16;;;19.27;64.29
13553;BME280;6847;48.830;9.116;2022-09-17T10:07:05;97774.03;;;19.40;63.88
13553;BME280;6847;48.830;9.116;2022-09-17T10:10:08;97792.09;;;19.94;63.78
13553;BME280;6847;48.830;9.116;2022-09-17T10:13:15;97793.81;;;21.21;61.93
13553;BME280;6847;48.830;9.116;2022-09-17T10:16:15;97800.25;;;22.43;60.30
13553;BME280;6847;48.830;9.116;2022-09-17T10:19:12;97804.00;;;22.35;61.03
13553;BME280;6847;48.830;9.116;2022-09-17T10:22:22;97799.31;;;23.02;60.55
13553;BME280;6847;48.830;9.116;2022-09-17T10:25:27;97793.44;;;23.42;59.85
13553;BME280;6847;48.830;9.116;2022-09-17T10:28:30;97799.13;;;22.60;61.09
13553;BME280;6847;48.830;9.116;2022-09-17T10:31:17;97771.84;;;21.96;62.47
13553;BME280;6847;48.830;9.116;2022-09-17T10:34:02;97787.00;;;22.33;62.11
13553;BME280;6847;48.830;9.116;2022-09-17T10:36:48;97791.34;;;23.36;60.17
13553;BME280;6847;48.830;9.116;2022-09-17T10:39:37;97789.38;;;24.17;59.21
13553;BME280;6847;48.830;9.116;2022-09-17T10:42:30;97787.63;;;26.00;56.99
13553;BME280;6847;48.830;9.116;2022-09-17T10:45:23;97788.59;;;26.18;55.76
13553;BME280;6847;48.830;9.116;2022-09-17T10:48:14;97789.31;;;25.41;57.74
13553;BME280;6847;48.830;9.116;2022-09-17T10:51:04;97785.59;;;25.60;57.56
13553;BME280;6847;48.830;9.116;2022-09-17T10:54:18;97759.44;;;24.98;58.46
13553;BME280;6847;48.830;9.116;2022-09-17T10:57:10;97778.41;;;25.56;58.30
13553;BME280;6847;48.830;9.116;2022-09-17T11:00:11;97758.78;;;25.08;58.77
13553;BME280;6847;48.830;9.116;2022-09-17T11:03:36;97768.81;;;26.24;57.43
13553;BME280;6847;48.830;9.116;2022-09-17T11:06:44;97775.31;;;27.66;55.52
13553;BME280;6847;48.830;9.116;2022-09-17T11:09:45;97760.28;;;28.02;54.76
13553;BME280;6847;48.830;9.116;2022-09-17T11:12:39;97783.31;;;27.85;55.34
13553;BME280;6847;48.830;9.116;2022-09-17T11:15:43;97784.16;;;28.10;55.25
13553;BME280;6847;48.830;9.116;2022-09-17T11:18:39;97776.47;;;27.57;55.95
13553;BME280;6847;48.830;9.116;2022-09-17T11:21:38;97736.78;;;26.30;56.94
13553;BME280;6847;48.830;9.116;2022-09-17T11:24:38;97773.94;;;25.81;58.27
13553;BME280;6847;48.830;9.116;2022-09-17T11:27:41;97772.97;;;25.63;58.17
13553;BME280;6847;48.830;9.116;2022-09-17T11:30:33;97760.19;;;25.58;57.81
13553;BME280;6847;48.830;9.116;2022-09-17T11:33:47;97765.13;;;25.08;57.92
13553;BME280;6847;48.830;9.116;2022-09-17T11:36:45;97712.53;;;24.07;58.23
13553;BME280;6847;48.830;9.116;2022-09-17T11:39:39;97753.56;;;24.24;58.07
13553;BME280;6847;48.830;9.116;2022-09-17T11:42:30;97759.97;;;24.28;57.64
13553;BME280;6847;48.830;9.116;2022-09-17T11:45:23;97755.94;;;24.48;57.24
13553;BME280;6847;48.830;9.116;2022-09-17T11:48:15;97748.38;;;24.71;56.39
13553;BME280;6847;48.830;9.116;2022-09-17T11:51:17;97748.16;;;24.84;56.18
13553;BME280;6847;48.830;9.116;2022-09-17T11:54:07;97744.84;;;25.01;56.14
13553;BME280;6847;48.830;9.116;2022-09-17T11:57:05;97747.00;;;25.15;55.95
13553;BME280;6847;48.830;9.116;2022-09-17T11:59:58;97711.09;;;24.92;56.17
13553;BME280;6847;48.830;9.116;2022-09-17T12:02:52;97746.22;;;24.61;56.49
13553;BME280;6847;48.830;9.116;2022-09-17T12:05:49;97757.09;;;23.79;57.76
13553;BME280;6847;48.830;9.116;2022-09-17T12:08:43;97724.75;;;22.67;58.70
13553;BME280;6847;48.830;9.116;2022-09-17T12:11:35;97739.81;;;22.03;59.57
13553;BME280;6847;48.830;9.116;2022-09-17T12:14:29;97727.88;;;21.56;59.93
13553;BME280;6847;48.830;9.116;2022-09-17T12:17:20;97730.81;;;21.19;60.05
13553;BME280;6847;48.830;9.116;2022-09-17T12:20:26;97729.47;;;20.49;60.14
13553;BME280;6847;48.830;9.116;2022-09-17T12:23:17;97718.00;;;19.74;60.66
13553;BME280;6847;48.830;9.116;2022-09-17T12:26:16;97712.09;;;19.51;60.73
13553;BME280;6847;48.830;9.116;2022-09-17T12:29:12;97745.16;;;20.00;60.13
13553;BME280;6847;48.830;9.116;2022-09-17T12:32:20;97731.66;;;20.55;59.34
13553;BME280;6847;48.830;9.116;2022-09-17T12:35:19;97729.47;;;20.61;58.73
13553;BME280;6847;48.830;9.116;2022-09-17T12:38:20;97744.16;;;20.41;58.97
13553;BME280;6847;48.830;9.116;2022-09-17T12:41:14;97749.16;;;19.78;59.09
13553;BME280;6847;48.830;9.116;2022-09-17T12:44:12;97748.84;;;18.84;60.23
13553;BME280;6847;48.830;9.116;2022-09-17T12:47:27;97744.09;;;18.13;61.12
13553;BME280;6847;48.830;9.116;2022-09-17T12:50:20;97740.97;;;17.94;61.57
13553;BME280;6847;48.830;9.116;2022-09-17T12:53:22;97747.66;;;17.67;61.73
13553;BME280;6847;48.830;9.116;2022-09-17T12:56:30;97753.34;;;17.36;61.99
13553;BME280;6847;48.830;9.116;2022-09-17T12:59:22;97736.81;;;16.98;62.44
13553;BME280;6847;48.830;9.116;2022-09-17T13:02:17;97753.53;;;16.62;62.47
13553;BME280;6847;48.830;9.116;2022-09-17T13:05:31;97763.50;;;16.19;62.60
13553;BME280;6847;48.830;9.116;2022-09-17T13:15:32;97764.06;;;15.99;63.06
13553;BME280;6847;48.830;9.116;2022-09-17T13:18:24;97763.19;;;16.20;62.78
13553;BME280;6847;48.830;9.116;2022-09-17T13:21:13;97762.44;;;16.37;62.57
13553;BME280;6847;48.830;9.116;2022-09-17T13:24:00;97763.41;;;16.41;62.38
13553;BME280;6847;48.830;9.116;2022-09-17T13:26:47;97763.44;;;16.50;62.45
13553;BME280;6847;48.830;9.116;2022-09-17T13:29:59;97751.75;;;16.67;62.45
13553;BME280;6847;48.830;9.116;2022-09-17T13:32:48;97745.81;;;16.82;62.17
13553;BME280;6847;48.830;9.116;2022-09-17T13:35:49;97748.38;;;17.21;62.01
13553;BME280;6847;48.830;9.116;2022-09-17T13:38:39;97748.19;;;17.35;61.92
13553;BME280;6847;48.830;9.116;2022-09-17T13:41:31;97745.25;;;17.66;61.86
13553;BME280;6847;48.830;9.116;2022-09-17T13:44:21;97721.41;;;18.04;61.60
13553;BME280;6847;48.830;9.116;2022-09-17T13:47:14;97747.13;;;18.79;60.60
13553;BME280;6847;48.830;9.116;2022-09-17T13:50:04;97739.75;;;18.92;61.10
13553;BME280;6847;48.830;9.116;2022-09-17T13:52:52;97745.38;;;18.96;60.99
13553;BME280;6847;48.830;9.116;2022-09-17T13:55:44;97744.94;;;19.27;60.73
13553;BME280;6847;48.830;9.116;2022-09-17T13:58:33;97703.69;;;19.35;60.81
13553;BME280;6847;48.830;9.116;2022-09-17T14:02:03;97739.59;;;19.63;60.74
13553;BME280;6847;48.830;9.116;2022-09-17T14:05:34;97733.09;;;19.68;60.61
13553;BME280;6847;48.830;9.116;2022-09-17T14:08:46;97624.41;;;18.89;60.60
13553;BME280;6847;48.830;9.116;2022-09-17T14:11:36;97736.19;;;19.66;60.56
13553;BME280;6847;48.830;9.116;2022-09-17T14:14:39;97737.88;;;19.71;60.80
13553;BME280;6847;48.830;9.116;2022-09-17T14:17:51;97732.91;;;20.09;60.14
13553;BME280;6847;48.830;9.116;2022-09-17T14:20:39;97738.59;;;20.77;59.77
13553;BME280;6847;48.830;9.116;2022-09-17T14:23:25;97728.44;;;21.61;58.96
13553;BME280;6847;48.830;9.116;2022-09-17T14:26:18;97741.22;;;22.13;58.58
13553;BME280;6847;48.830;9.116;2022-09-17T14:29:23;97736.41;;;22.41;58.65
13553;BME280;6847;48.830;9.116;2022-09-17T14:32:12;97732.38;;;22.74;58.74
13553;BME280;6847;48.830;9.116;2022-09-17T14:35:03;97725.13;;;23.01;58.51
13553;BME280;6847;48.830;9.116;2022-09-17T14:38:01;97729.97;;;22.88;58.81
13553;BME280;6847;48.830;9.116;2022-09-17T14:40:51;97728.50;;;22.75;58.65
13553;BME280;6847;48.830;9.116;2022-09-17T14:43:43;97732.38;;;22.74;58.72
13553;BME280;6847;48.830;9.116;2022-09-17T14:46:35;97724.06;;;22.55;58.64
13553;BME280;6847;48.830;9.116;2022-09-17T14:49:24;97731.19;;;22.56;58.41
13553;BME280;6847;48.830;9.116;2022-09-17T14:52:23;97683.66;;;22.27;58.51
13553;BME280;6847;48.830;9.116;2022-09-17T14:55:13;97731.63;;;22.58;58.05
13553;BME280;6847;48.830;9.116;2022-09-17T14:58:00;97738.31;;;22.57;58.04
13553;BME280;6847;48.830;9.116;2022-09-17T15:00:50;97736.81;;;22.59;58.08
13553;BME280;6847;48.830;9.116;2022-09-17T15:03:37;97709.84;;;22.52;58.15
13553;BME280;6847;48.830;9.116;2022-09-17T15:06:23;97735.00;;;22.67;58.07
13553;BME280;6847;48.830;9.116;2022-09-17T15:09:15;97739.56;;;22.43;57.90
13553;BME280;6847;48.830;9.116;2022-09-17T15:12:01;97726.31;;;21.86;57.97
13553;BME280;6847;48.830;9.116;2022-09-17T15:14:48;97729.31;;;21.22;58.20
13553;BME280;6847;48.830;9.116;2022-09-17T15:17:33;97686.88;;;20.43;58.51
13553;BME280;6847;48.830;9.116;2022-09-17T15:20:21;97732.00;;;20.17;58.58
13553;BME280;6847;48.830;9.116;2022-09-17T15:23:12;97719.53;;;19.50;58.66
13553;BME280;6847;48.830;9.116;2022-09-17T15:26:04;97725.03;;;18.97;59.10
13553;BME280;6847;48.830;9.116;2022-09-17T15:28:52;97733.22;;;18.55;58.91
13553;BME280;6847;48.830;9.116;2022-09-17T15:31:40;97733.50;;;18.33;59.07
13553;BME280;6847;48.830;9.116;2022-09-17T15:34:36;97719.75;;;18.21;59.08
13553;BME280;6847;48.830;9.116;2022-09-17T15:37:24;97719.81;;;18.03;58.74
13553;BME280;6847;48.830;9.116;2022-09-17T15:40:11;97719.53;;;17.96;58.95
13553;BME280;6847;48.830;9.116;2022-09-17T15:43:03;97659.41;;;17.62;59.33